sensor_id;sensor_type;location;lat;lon;timestamp;P1;durP1;ratioP1;P2;durP2;ratioP2
21392;SDS011;10857;52.228;21.026;2024-01-10T00:02:20;104.20;;;35.30;;
21392;SDS011;10857;52.228;21.026;2024-01-10T00:04:47;107.93;;;35.87;;
21392;SDS011;10857;52.228;21.026;2024-01-10T00:07:14;111.00;;;36.03;;
21392;SDS011;10857;52.228;21.026;2024-01-10T00:09:41;106.67;;;37.27;;
21392;SDS011;10857;52.228;21.026;2024-01-10T00:12:08;107.77;;;36.50;;
21392;SDS011;10857;52.228;21.026;2024-01-10T00:14:35;106.83;;;34.13;;
21392;SDS011;10857;52.228;21.026;2024-01-10T00:17:02;101.13;;;35.30;;
21392;SDS011;10857;52.228;21.026;2024-01-10T00:19:30;101.80;;;34.40;;
21392;SDS011;10857;52.228;21.026;2024-01-10T00:21:57;100.40;;;34.13;;
21392;SDS011;10857;52.228;21.026;2024-01-10T00:24:24;91.40;;;31.93;;
21392;SDS011;10857;52.228;21.026;2024-01-10T00:26:51;97.33;;;32.97;;
21392;SDS011;10857;52.228;21.026;2024-01-10T00:29:18;89.93;;;30.07;;
21392;SDS011;10857;52.228;21.026;2024-01-10T00:31:46;84.00;;;29.07;;
21392;SDS011;10857;52.228;21.026;2024-01-10T00:34:13;82.97;;;28.60;;
21392;SDS011;10857;52.228;21.026;2024-01-10T00:36:40;78.97;;;26.30;;
21392;SDS011;10857;52.228;21.026;2024-01-10T00:39:07;78.33;;;28.47;;
21392;SDS011;10857;52.228;21.026;2024-01-10T00:41:34;77.00;;;25.97;;
21392;SDS011;10857;52.228;21.026;2024-01-10T00:44:01;66.70;;;23.97;;
21392;SDS011;10857;52.228;21.026;2024-01-10T00:46:28;76.03;;;26.10;;
21392;SDS011;10857;52.228;21.026;2024-01-10T00:48:55;73.27;;;25.27;;
21392;SDS011;10857;52.228;21.026;2024-01-10T00:51:23;70.33;;;25.97;;
21392;SDS011;10857;52.228;21.026;2024-01-10T00:53:50;73.43;;;26.23;;
21392;SDS011;10857;52.228;21.026;2024-01-10T00:56:17;75.03;;;27.40;;
21392;SDS011;10857;52.228;21.026;2024-01-10T00:58:44;76.53;;;27.53;;
21392;SDS011;10857;52.228;21.026;2024-01-10T01:01:11;79.63;;;27.53;;
21392;SDS011;10857;52.228;21.026;2024-01-10T01:03:38;74.70;;;26.20;;
21392;SDS011;10857;52.228;21.026;2024-01-10T01:06:06;80.07;;;26.80;;
21392;SDS011;10857;52.228;21.026;2024-01-10T01:08:33;84.37;;;28.93;;
21392;SDS011;10857;52.228;21.026;2024-01-10T01:11:00;80.93;;;28.83;;
21392;SDS011;10857;52.228;21.026;2024-01-10T01:13:27;86.07;;;29.07;;
21392;SDS011;10857;52.228;21.026;2024-01-10T01:15:54;82.20;;;28.00;;
21392;SDS011;10857;52.228;21.026;2024-01-10T01:18:21;81.67;;;27.87;;
21392;SDS011;10857;52.228;21.026;2024-01-10T01:20:48;82.27;;;30.30;;
21392;SDS011;10857;52.228;21.026;2024-01-10T01:23:16;76.97;;;27.73;;
21392;SDS011;10857;52.228;21.026;2024-01-10T01:26:00;60.83;;;21.23;;
21392;SDS011;10857;52.228;21.026;2024-01-10T01:28:27;93.03;;;31.40;;
21392;SDS011;10857;52.228;21.026;2024-01-10T01:30:55;92.33;;;31.50;;
21392;SDS011;10857;52.228;21.026;2024-01-10T01:33:22;87.73;;;31.77;;
21392;SDS011;10857;52.228;21.026;2024-01-10T01:35:49;99.17;;;34.17;;
21392;SDS011;10857;52.228;21.026;2024-01-10T01:38:16;97.40;;;33.30;;
21392;SDS011;10857;52.228;21.026;2024-01-10T01:40:43;103.13;;;34.00;;
21392;SDS011;10857;52.228;21.026;2024-01-10T01:43:20;100.00;;;33.00;;
21392;SDS011;10857;52.228;21.026;2024-01-10T01:45:50;110.50;;;36.13;;
21392;SDS011;10857;52.228;21.026;2024-01-10T01:48:22;97.97;;;35.27;;
21392;SDS011;10857;52.228;21.026;2024-01-10T01:50:51;109.40;;;36.00;;
21392;SDS011;10857;52.228;21.026;2024-01-10T01:53:21;108.50;;;33.07;;
21392;SDS011;10857;52.228;21.026;2024-01-10T01:55:48;96.47;;;31.70;;
21392;SDS011;10857;52.228;21.026;2024-01-10T01:58:16;112.73;;;39.97;;
21392;SDS011;10857;52.228;21.026;2024-01-10T02:00:43;112.93;;;38.33;;
21392;SDS011;10857;52.228;21.026;2024-01-10T02:03:11;118.40;;;37.40;;
21392;SDS011;10857;52.228;21.026;2024-01-10T02:05:38;100.40;;;35.10;;
21392;SDS011;10857;52.228;21.026;2024-01-10T02:08:05;110.53;;;38.67;;
21392;SDS011;10857;52.228;21.026;2024-01-10T02:10:33;115.33;;;38.83;;
21392;SDS011;10857;52.228;21.026;2024-01-10T02:13:00;113.67;;;37.90;;
21392;SDS011;10857;52.228;21.026;2024-01-10T02:15:28;116.37;;;38.03;;
21392;SDS011;10857;52.228;21.026;2024-01-10T02:17:55;113.03;;;38.93;;
21392;SDS011;10857;52.228;21.026;2024-01-10T02:20:22;115.70;;;37.77;;
21392;SDS011;10857;52.228;21.026;2024-01-10T02:22:49;104.87;;;36.33;;
21392;SDS011;10857;52.228;21.026;2024-01-10T02:25:17;107.80;;;37.80;;
21392;SDS011;10857;52.228;21.026;2024-01-10T02:27:44;113.37;;;37.30;;
21392;SDS011;10857;52.228;21.026;2024-01-10T02:30:11;117.03;;;39.10;;
21392;SDS011;10857;52.228;21.026;2024-01-10T02:32:38;110.40;;;37.93;;
21392;SDS011;10857;52.228;21.026;2024-01-10T02:35:06;107.53;;;37.17;;
21392;SDS011;10857;52.228;21.026;2024-01-10T02:37:34;104.17;;;35.83;;
21392;SDS011;10857;52.228;21.026;2024-01-10T02:40:02;107.83;;;34.83;;
21392;SDS011;10857;52.228;21.026;2024-01-10T02:42:29;87.07;;;31.87;;
21392;SDS011;10857;52.228;21.026;2024-01-10T02:44:56;101.93;;;34.63;;
21392;SDS011;10857;52.228;21.026;2024-01-10T02:47:26;94.47;;;32.80;;
21392;SDS011;10857;52.228;21.026;2024-01-10T02:49:54;98.43;;;33.53;;
21392;SDS011;10857;52.228;21.026;2024-01-10T02:52:21;92.33;;;32.27;;
21392;SDS011;10857;52.228;21.026;2024-01-10T02:54:48;98.60;;;34.70;;
21392;SDS011;10857;52.228;21.026;2024-01-10T02:57:15;103.67;;;36.53;;
21392;SDS011;10857;52.228;21.026;2024-01-10T02:59:43;100.67;;;36.10;;
21392;SDS011;10857;52.228;21.026;2024-01-10T03:02:10;100.90;;;36.03;;
21392;SDS011;10857;52.228;21.026;2024-01-10T03:04:37;100.17;;;35.60;;
21392;SDS011;10857;52.228;21.026;2024-01-10T03:07:04;109.57;;;38.10;;
21392;SDS011;10857;52.228;21.026;2024-01-10T03:09:31;110.57;;;38.77;;
21392;SDS011;10857;52.228;21.026;2024-01-10T03:11:58;102.90;;;37.10;;
21392;SDS011;10857;52.228;21.026;2024-01-10T03:14:25;106.00;;;37.80;;
21392;SDS011;10857;52.228;21.026;2024-01-10T03:16:52;108.73;;;39.27;;
21392;SDS011;10857;52.228;21.026;2024-01-10T03:19:19;109.27;;;39.30;;
21392;SDS011;10857;52.228;21.026;2024-01-10T03:21:47;117.73;;;38.13;;
21392;SDS011;10857;52.228;21.026;2024-01-10T03:24:14;123.10;;;40.53;;
21392;SDS011;10857;52.228;21.026;2024-01-10T03:26:41;119.60;;;40.53;;
21392;SDS011;10857;52.228;21.026;2024-01-10T03:29:08;121.03;;;41.50;;
21392;SDS011;10857;52.228;21.026;2024-01-10T03:31:35;120.47;;;43.37;;
21392;SDS011;10857;52.228;21.026;2024-01-10T03:34:03;116.43;;;40.00;;
21392;SDS011;10857;52.228;21.026;2024-01-10T03:36:30;114.03;;;39.80;;
21392;SDS011;10857;52.228;21.026;2024-01-10T03:38:58;109.87;;;40.37;;
21392;SDS011;10857;52.228;21.026;2024-01-10T03:41:25;124.30;;;42.60;;
21392;SDS011;10857;52.228;21.026;2024-01-10T03:43:52;118.83;;;42.30;;
21392;SDS011;10857;52.228;21.026;2024-01-10T03:46:21;122.23;;;42.20;;
21392;SDS011;10857;52.228;21.026;2024-01-10T03:48:48;122.07;;;42.67;;
21392;SDS011;10857;52.228;21.026;2024-01-10T03:51:15;121.43;;;41.40;;
21392;SDS011;10857;52.228;21.026;2024-01-10T03:53:44;125.90;;;42.97;;
21392;SDS011;10857;52.228;21.026;2024-01-10T03:56:11;114.33;;;40.90;;
21392;SDS011;10857;52.228;21.026;2024-01-10T03:58:39;120.83;;;41.33;;
21392;SDS011;10857;52.228;21.026;2024-01-10T04:01:07;115.97;;;41.43;;
21392;SDS011;10857;52.228;21.026;2024-01-10T04:03:35;122.87;;;40.53;;
21392;SDS011;10857;52.228;21.026;2024-01-10T04:06:03;111.43;;;39.03;;
21392;SDS011;10857;52.228;21.026;2024-01-10T04:08:30;117.37;;;40.63;;
21392;SDS011;10857;52.228;21.026;2024-01-10T04:10:57;116.03;;;40.90;;
21392;SDS011;10857;52.228;21.026;2024-01-10T04:13:25;109.17;;;39.70;;
21392;SDS011;10857;52.228;21.026;2024-01-10T04:15:52;119.87;;;39.67;;
21392;SDS011;10857;52.228;21.026;2024-01-10T04:18:19;110.97;;;38.33;;
21392;SDS011;10857;52.228;21.026;2024-01-10T04:20:47;118.00;;;39.50;;
21392;SDS011;10857;52.228;21.026;2024-01-10T04:23:15;117.70;;;38.63;;
21392;SDS011;10857;52.228;21.026;2024-01-10T04:25:43;123.67;;;39.50;;
21392;SDS011;10857;52.228;21.026;2024-01-10T04:28:10;118.30;;;37.93;;
21392;SDS011;10857;52.228;21.026;2024-01-10T04:30:37;120.03;;;39.43;;
21392;SDS011;10857;52.228;21.026;2024-01-10T04:33:05;110.47;;;37.00;;
21392;SDS011;10857;52.228;21.026;2024-01-10T04:35:32;111.40;;;37.57;;
21392;SDS011;10857;52.228;21.026;2024-01-10T04:38:00;99.13;;;35.13;;
21392;SDS011;10857;52.228;21.026;2024-01-10T04:40:27;114.70;;;40.57;;
21392;SDS011;10857;52.228;21.026;2024-01-10T04:42:54;112.67;;;41.67;;
21392;SDS011;10857;52.228;21.026;2024-01-10T04:45:21;112.33;;;38.57;;
21392;SDS011;10857;52.228;21.026;2024-01-10T04:47:48;120.40;;;39.77;;
21392;SDS011;10857;52.228;21.026;2024-01-10T04:50:15;110.17;;;37.47;;
21392;SDS011;10857;52.228;21.026;2024-01-10T04:52:42;121.77;;;38.87;;
21392;SDS011;10857;52.228;21.026;2024-01-10T04:55:09;108.63;;;36.57;;
21392;SDS011;10857;52.228;21.026;2024-01-10T04:57:37;118.83;;;41.47;;
21392;SDS011;10857;52.228;21.026;2024-01-10T05:00:05;116.60;;;42.33;;
21392;SDS011;10857;52.228;21.026;2024-01-10T05:02:33;122.40;;;40.60;;
21392;SDS011;10857;52.228;21.026;2024-01-10T05:05:00;121.13;;;41.03;;
21392;SDS011;10857;52.228;21.026;2024-01-10T05:07:28;120.77;;;40.20;;
21392;SDS011;10857;52.228;21.026;2024-01-10T05:09:55;120.97;;;39.13;;
21392;SDS011;10857;52.228;21.026;2024-01-10T05:12:22;104.43;;;36.83;;
21392;SDS011;10857;52.228;21.026;2024-01-10T05:14:49;127.97;;;39.57;;
21392;SDS011;10857;52.228;21.026;2024-01-10T05:17:16;115.57;;;40.40;;
21392;SDS011;10857;52.228;21.026;2024-01-10T05:19:44;128.00;;;40.93;;
21392;SDS011;10857;52.228;21.026;2024-01-10T05:22:12;123.03;;;41.17;;
21392;SDS011;10857;52.228;21.026;2024-01-10T05:24:39;126.67;;;41.30;;
21392;SDS011;10857;52.228;21.026;2024-01-10T05:27:06;129.27;;;41.40;;
21392;SDS011;10857;52.228;21.026;2024-01-10T05:29:34;126.10;;;44.33;;
21392;SDS011;10857;52.228;21.026;2024-01-10T05:32:00;105.10;;;37.03;;
21392;SDS011;10857;52.228;21.026;2024-01-10T05:34:28;129.53;;;40.97;;
21392;SDS011;10857;52.228;21.026;2024-01-10T05:36:55;128.43;;;41.33;;
21392;SDS011;10857;52.228;21.026;2024-01-10T05:39:22;114.30;;;40.20;;
21392;SDS011;10857;52.228;21.026;2024-01-10T05:41:49;121.33;;;43.30;;
21392;SDS011;10857;52.228;21.026;2024-01-10T05:44:17;121.50;;;42.77;;
21392;SDS011;10857;52.228;21.026;2024-01-10T05:46:44;135.93;;;46.97;;
21392;SDS011;10857;52.228;21.026;2024-01-10T05:49:11;121.87;;;42.40;;
21392;SDS011;10857;52.228;21.026;2024-01-10T05:51:38;129.00;;;42.77;;
21392;SDS011;10857;52.228;21.026;2024-01-10T05:54:05;125.43;;;41.07;;
21392;SDS011;10857;52.228;21.026;2024-01-10T05:56:33;132.40;;;41.77;;
21392;SDS011;10857;52.228;21.026;2024-01-10T05:59:00;133.77;;;41.07;;
21392;SDS011;10857;52.228;21.026;2024-01-10T06:01:27;114.93;;;38.80;;
21392;SDS011;10857;52.228;21.026;2024-01-10T06:03:55;124.37;;;42.07;;
21392;SDS011;10857;52.228;21.026;2024-01-10T06:06:23;127.20;;;40.77;;
21392;SDS011;10857;52.228;21.026;2024-01-10T06:08:50;118.10;;;39.20;;
21392;SDS011;10857;52.228;21.026;2024-01-10T06:11:18;133.60;;;44.73;;
21392;SDS011;10857;52.228;21.026;2024-01-10T06:13:45;137.70;;;44.60;;
21392;SDS011;10857;52.228;21.026;2024-01-10T06:16:22;125.43;;;42.70;;
21392;SDS011;10857;52.228;21.026;2024-01-10T06:18:52;127.07;;;40.47;;
21392;SDS011;10857;52.228;21.026;2024-01-10T06:21:19;123.00;;;41.37;;
21392;SDS011;10857;52.228;21.026;2024-01-10T06:23:46;137.37;;;42.77;;
21392;SDS011;10857;52.228;21.026;2024-01-10T06:26:13;134.20;;;44.20;;
21392;SDS011;10857;52.228;21.026;2024-01-10T06:28:41;131.33;;;45.87;;
21392;SDS011;10857;52.228;21.026;2024-01-10T06:31:08;133.93;;;44.50;;
21392;SDS011;10857;52.228;21.026;2024-01-10T06:33:38;133.97;;;45.53;;
21392;SDS011;10857;52.228;21.026;2024-01-10T06:36:05;133.93;;;46.30;;
21392;SDS011;10857;52.228;21.026;2024-01-10T06:38:32;124.37;;;43.53;;
21392;SDS011;10857;52.228;21.026;2024-01-10T06:41:00;126.77;;;40.87;;
21392;SDS011;10857;52.228;21.026;2024-01-10T06:43:27;141.43;;;44.13;;
21392;SDS011;10857;52.228;21.026;2024-01-10T06:45:54;133.80;;;42.57;;
21392;SDS011;10857;52.228;21.026;2024-01-10T06:48:22;123.47;;;42.73;;
21392;SDS011;10857;52.228;21.026;2024-01-10T06:50:49;129.90;;;41.70;;
21392;SDS011;10857;52.228;21.026;2024-01-10T06:53:16;123.67;;;40.10;;
21392;SDS011;10857;52.228;21.026;2024-01-10T06:55:43;133.43;;;47.30;;
21392;SDS011;10857;52.228;21.026;2024-01-10T06:58:10;133.87;;;44.07;;
21392;SDS011;10857;52.228;21.026;2024-01-10T07:00:37;115.30;;;36.40;;
21392;SDS011;10857;52.228;21.026;2024-01-10T07:03:05;117.43;;;36.80;;
21392;SDS011;10857;52.228;21.026;2024-01-10T07:05:32;138.20;;;43.80;;
21392;SDS011;10857;52.228;21.026;2024-01-10T07:07:59;124.83;;;42.50;;
21392;SDS011;10857;52.228;21.026;2024-01-10T07:10:29;134.73;;;43.83;;
21392;SDS011;10857;52.228;21.026;2024-01-10T07:12:56;136.17;;;44.77;;
21392;SDS011;10857;52.228;21.026;2024-01-10T07:15:23;141.03;;;44.37;;
21392;SDS011;10857;52.228;21.026;2024-01-10T07:17:51;140.03;;;46.10;;
21392;SDS011;10857;52.228;21.026;2024-01-10T07:20:18;128.20;;;42.30;;
21392;SDS011;10857;52.228;21.026;2024-01-10T07:22:46;130.00;;;45.37;;
21392;SDS011;10857;52.228;21.026;2024-01-10T07:25:13;139.77;;;43.87;;
21392;SDS011;10857;52.228;21.026;2024-01-10T07:27:41;132.93;;;44.53;;
21392;SDS011;10857;52.228;21.026;2024-01-10T07:30:08;135.87;;;44.70;;
21392;SDS011;10857;52.228;21.026;2024-01-10T07:32:42;138.67;;;45.47;;
21392;SDS011;10857;52.228;21.026;2024-01-10T07:35:11;146.60;;;45.97;;
21392;SDS011;10857;52.228;21.026;2024-01-10T07:37:40;148.83;;;46.13;;
21392;SDS011;10857;52.228;21.026;2024-01-10T07:40:09;136.80;;;43.00;;
21392;SDS011;10857;52.228;21.026;2024-01-10T07:42:37;125.67;;;43.73;;
21392;SDS011;10857;52.228;21.026;2024-01-10T07:45:06;132.00;;;43.20;;
21392;SDS011;10857;52.228;21.026;2024-01-10T07:47:34;116.47;;;40.63;;
21392;SDS011;10857;52.228;21.026;2024-01-10T07:52:36;123.23;;;42.50;;
21392;SDS011;10857;52.228;21.026;2024-01-10T07:55:03;143.33;;;48.63;;
21392;SDS011;10857;52.228;21.026;2024-01-10T07:57:32;133.90;;;47.87;;
21392;SDS011;10857;52.228;21.026;2024-01-10T08:00:00;121.17;;;38.40;;
21392;SDS011;10857;52.228;21.026;2024-01-10T08:02:33;129.87;;;44.13;;
21392;SDS011;10857;52.228;21.026;2024-01-10T08:05:01;128.13;;;40.07;;
21392;SDS011;10857;52.228;21.026;2024-01-10T08:07:32;119.33;;;39.57;;
21392;SDS011;10857;52.228;21.026;2024-01-10T08:09:59;119.90;;;39.97;;
21392;SDS011;10857;52.228;21.026;2024-01-10T08:12:27;111.87;;;37.50;;
21392;SDS011;10857;52.228;21.026;2024-01-10T08:14:54;118.60;;;41.00;;
21392;SDS011;10857;52.228;21.026;2024-01-10T08:17:21;117.33;;;40.67;;
21392;SDS011;10857;52.228;21.026;2024-01-10T08:19:49;123.20;;;43.93;;
21392;SDS011;10857;52.228;21.026;2024-01-10T08:22:18;121.27;;;40.87;;
21392;SDS011;10857;52.228;21.026;2024-01-10T08:24:52;128.73;;;43.93;;
21392;SDS011;10857;52.228;21.026;2024-01-10T08:27:19;132.27;;;44.03;;
21392;SDS011;10857;52.228;21.026;2024-01-10T08:29:46;143.20;;;47.07;;
21392;SDS011;10857;52.228;21.026;2024-01-10T08:32:13;132.67;;;44.67;;
21392;SDS011;10857;52.228;21.026;2024-01-10T08:34:41;130.37;;;45.97;;
21392;SDS011;10857;52.228;21.026;2024-01-10T08:37:09;134.43;;;47.50;;
21392;SDS011;10857;52.228;21.026;2024-01-10T08:39:36;134.53;;;46.77;;
21392;SDS011;10857;52.228;21.026;2024-01-10T08:42:03;136.00;;;46.93;;
21392;SDS011;10857;52.228;21.026;2024-01-10T08:44:30;136.57;;;45.90;;
21392;SDS011;10857;52.228;21.026;2024-01-10T08:46:57;136.03;;;46.73;;
21392;SDS011;10857;52.228;21.026;2024-01-10T08:49:25;133.67;;;46.20;;
21392;SDS011;10857;52.228;21.026;2024-01-10T08:51:53;128.50;;;44.80;;
21392;SDS011;10857;52.228;21.026;2024-01-10T08:54:20;150.30;;;56.57;;
21392;SDS011;10857;52.228;21.026;2024-01-10T08:56:49;151.77;;;46.23;;
21392;SDS011;10857;52.228;21.026;2024-01-10T08:59:16;139.70;;;48.10;;
21392;SDS011;10857;52.228;21.026;2024-01-10T09:01:43;130.80;;;50.70;;
21392;SDS011;10857;52.228;21.026;2024-01-10T09:04:12;139.57;;;54.10;;
21392;SDS011;10857;52.228;21.026;2024-01-10T09:06:39;125.13;;;43.43;;
21392;SDS011;10857;52.228;21.026;2024-01-10T09:09:07;138.33;;;48.03;;
21392;SDS011;10857;52.228;21.026;2024-01-10T09:11:34;134.60;;;47.23;;
21392;SDS011;10857;52.228;21.026;2024-01-10T09:14:06;140.00;;;48.90;;
21392;SDS011;10857;52.228;21.026;2024-01-10T09:16:35;150.73;;;48.07;;
21392;SDS011;10857;52.228;21.026;2024-01-10T09:19:02;147.20;;;49.97;;
21392;SDS011;10857;52.228;21.026;2024-01-10T09:21:29;127.87;;;47.03;;
21392;SDS011;10857;52.228;21.026;2024-01-10T09:23:56;151.73;;;51.80;;
21392;SDS011;10857;52.228;21.026;2024-01-10T09:26:23;140.40;;;48.63;;
21392;SDS011;10857;52.228;21.026;2024-01-10T09:28:50;140.27;;;48.30;;
21392;SDS011;10857;52.228;21.026;2024-01-10T09:31:17;150.97;;;51.77;;
21392;SDS011;10857;52.228;21.026;2024-01-10T09:33:44;141.37;;;57.13;;
21392;SDS011;10857;52.228;21.026;2024-01-10T09:36:12;157.03;;;68.80;;
21392;SDS011;10857;52.228;21.026;2024-01-10T09:38:40;152.47;;;55.07;;
21392;SDS011;10857;52.228;21.026;2024-01-10T09:41:07;153.50;;;56.97;;
21392;SDS011;10857;52.228;21.026;2024-01-10T09:43:37;164.73;;;59.33;;
21392;SDS011;10857;52.228;21.026;2024-01-10T09:46:04;131.93;;;49.33;;
21392;SDS011;10857;52.228;21.026;2024-01-10T09:48:33;150.90;;;50.67;;
21392;SDS011;10857;52.228;21.026;2024-01-10T09:51:01;144.17;;;49.80;;
21392;SDS011;10857;52.228;21.026;2024-01-10T09:53:28;151.67;;;52.27;;
21392;SDS011;10857;52.228;21.026;2024-01-10T09:55:58;146.20;;;52.63;;
21392;SDS011;10857;52.228;21.026;2024-01-10T09:58:26;145.40;;;50.17;;
21392;SDS011;10857;52.228;21.026;2024-01-10T10:00:53;155.13;;;52.63;;
21392;SDS011;10857;52.228;21.026;2024-01-10T10:03:21;151.40;;;52.77;;
21392;SDS011;10857;52.228;21.026;2024-01-10T10:05:48;148.87;;;50.17;;
21392;SDS011;10857;52.228;21.026;2024-01-10T10:08:16;148.43;;;52.10;;
21392;SDS011;10857;52.228;21.026;2024-01-10T10:10:49;147.80;;;56.17;;
21392;SDS011;10857;52.228;21.026;2024-01-10T10:13:29;151.17;;;57.37;;
21392;SDS011;10857;52.228;21.026;2024-01-10T10:15:59;153.13;;;53.17;;
21392;SDS011;10857;52.228;21.026;2024-01-10T10:18:28;154.47;;;52.33;;
21392;SDS011;10857;52.228;21.026;2024-01-10T10:21:11;140.93;;;49.90;;
21392;SDS011;10857;52.228;21.026;2024-01-10T10:23:41;100.53;;;32.27;;
21392;SDS011;10857;52.228;21.026;2024-01-10T10:26:13;135.80;;;50.30;;
21392;SDS011;10857;52.228;21.026;2024-01-10T10:28:47;135.40;;;46.93;;
21392;SDS011;10857;52.228;21.026;2024-01-10T10:31:15;138.43;;;45.53;;
21392;SDS011;10857;52.228;21.026;2024-01-10T10:33:43;125.90;;;45.50;;
21392;SDS011;10857;52.228;21.026;2024-01-10T10:36:14;139.33;;;50.93;;
21392;SDS011;10857;52.228;21.026;2024-01-10T10:38:42;140.73;;;48.80;;
21392;SDS011;10857;52.228;21.026;2024-01-10T10:41:09;138.50;;;50.23;;
21392;SDS011;10857;52.228;21.026;2024-01-10T10:43:39;139.70;;;53.70;;
21392;SDS011;10857;52.228;21.026;2024-01-10T10:46:10;140.97;;;50.67;;
21392;SDS011;10857;52.228;21.026;2024-01-10T10:48:41;142.03;;;50.50;;
21392;SDS011;10857;52.228;21.026;2024-01-10T10:53:38;143.33;;;49.20;;
21392;SDS011;10857;52.228;21.026;2024-01-10T10:56:07;134.57;;;49.87;;
21392;SDS011;10857;52.228;21.026;2024-01-10T10:58:35;137.30;;;47.70;;
21392;SDS011;10857;52.228;21.026;2024-01-10T11:01:05;132.93;;;47.93;;
21392;SDS011;10857;52.228;21.026;2024-01-10T11:03:43;133.73;;;49.50;;
21392;SDS011;10857;52.228;21.026;2024-01-10T11:06:11;136.53;;;48.47;;
21392;SDS011;10857;52.228;21.026;2024-01-10T11:08:46;132.93;;;49.60;;
21392;SDS011;10857;52.228;21.026;2024-01-10T11:17:13;131.97;;;46.10;;
21392;SDS011;10857;52.228;21.026;2024-01-10T11:20:17;129.80;;;47.17;;
21392;SDS011;10857;52.228;21.026;2024-01-10T11:25:41;136.53;;;49.63;;
21392;SDS011;10857;52.228;21.026;2024-01-10T11:28:08;135.73;;;49.13;;
21392;SDS011;10857;52.228;21.026;2024-01-10T11:30:48;141.00;;;53.27;;
21392;SDS011;10857;52.228;21.026;2024-01-10T11:33:22;134.63;;;48.97;;
21392;SDS011;10857;52.228;21.026;2024-01-10T11:38:58;137.50;;;48.80;;
21392;SDS011;10857;52.228;21.026;2024-01-10T11:41:32;115.80;;;47.20;;
21392;SDS011;10857;52.228;21.026;2024-01-10T11:46:49;134.70;;;51.57;;
21392;SDS011;10857;52.228;21.026;2024-01-10T11:49:20;142.07;;;53.37;;
21392;SDS011;10857;52.228;21.026;2024-01-10T11:51:52;141.10;;;50.90;;
21392;SDS011;10857;52.228;21.026;2024-01-10T11:57:22;132.13;;;49.87;;
21392;SDS011;10857;52.228;21.026;2024-01-10T11:59:55;135.10;;;50.90;;
21392;SDS011;10857;52.228;21.026;2024-01-10T12:02:26;137.20;;;49.63;;
21392;SDS011;10857;52.228;21.026;2024-01-10T12:04:54;138.10;;;52.07;;
21392;SDS011;10857;52.228;21.026;2024-01-10T12:07:22;122.20;;;49.67;;
21392;SDS011;10857;52.228;21.026;2024-01-10T12:09:54;133.17;;;50.27;;
21392;SDS011;10857;52.228;21.026;2024-01-10T12:12:21;138.33;;;55.17;;
21392;SDS011;10857;52.228;21.026;2024-01-10T12:14:50;136.10;;;49.27;;
21392;SDS011;10857;52.228;21.026;2024-01-10T12:17:18;153.40;;;51.93;;
21392;SDS011;10857;52.228;21.026;2024-01-10T12:19:46;144.63;;;51.47;;
21392;SDS011;10857;52.228;21.026;2024-01-10T12:22:18;142.17;;;52.63;;
21392;SDS011;10857;52.228;21.026;2024-01-10T12:24:48;133.37;;;49.67;;
21392;SDS011;10857;52.228;21.026;2024-01-10T12:27:17;134.47;;;50.30;;
21392;SDS011;10857;52.228;21.026;2024-01-10T12:29:53;140.13;;;51.70;;
21392;SDS011;10857;52.228;21.026;2024-01-10T12:32:20;130.17;;;49.67;;
21392;SDS011;10857;52.228;21.026;2024-01-10T12:34:57;131.57;;;51.53;;
21392;SDS011;10857;52.228;21.026;2024-01-10T12:37:29;132.20;;;53.53;;
21392;SDS011;10857;52.228;21.026;2024-01-10T12:39:56;125.03;;;48.83;;
21392;SDS011;10857;52.228;21.026;2024-01-10T12:42:24;140.97;;;56.00;;
21392;SDS011;10857;52.228;21.026;2024-01-10T12:44:51;134.30;;;50.47;;
21392;SDS011;10857;52.228;21.026;2024-01-10T12:47:21;138.20;;;50.40;;
21392;SDS011;10857;52.228;21.026;2024-01-10T12:49:51;137.27;;;52.67;;
21392;SDS011;10857;52.228;21.026;2024-01-10T12:52:18;139.43;;;51.90;;
21392;SDS011;10857;52.228;21.026;2024-01-10T12:54:50;131.90;;;47.53;;
21392;SDS011;10857;52.228;21.026;2024-01-10T12:57:17;133.33;;;49.13;;
21392;SDS011;10857;52.228;21.026;2024-01-10T12:59:44;130.37;;;48.53;;
21392;SDS011;10857;52.228;21.026;2024-01-10T13:02:11;144.47;;;49.60;;
21392;SDS011;10857;52.228;21.026;2024-01-10T13:04:38;130.30;;;49.90;;
21392;SDS011;10857;52.228;21.026;2024-01-10T13:07:06;133.63;;;45.90;;
21392;SDS011;10857;52.228;21.026;2024-01-10T13:09:33;129.40;;;50.47;;
21392;SDS011;10857;52.228;21.026;2024-01-10T13:12:02;130.73;;;53.33;;
21392;SDS011;10857;52.228;21.026;2024-01-10T13:14:30;129.57;;;48.57;;
21392;SDS011;10857;52.228;21.026;2024-01-10T13:16:58;130.47;;;46.77;;
21392;SDS011;10857;52.228;21.026;2024-01-10T13:19:26;134.57;;;49.20;;
21392;SDS011;10857;52.228;21.026;2024-01-10T13:21:53;142.53;;;53.77;;
21392;SDS011;10857;52.228;21.026;2024-01-10T13:24:21;135.80;;;48.50;;
21392;SDS011;10857;52.228;21.026;2024-01-10T13:26:48;138.70;;;49.53;;
21392;SDS011;10857;52.228;21.026;2024-01-10T13:29:16;141.10;;;51.33;;
21392;SDS011;10857;52.228;21.026;2024-01-10T13:31:43;124.37;;;48.60;;
21392;SDS011;10857;52.228;21.026;2024-01-10T13:34:10;126.13;;;47.60;;
21392;SDS011;10857;52.228;21.026;2024-01-10T13:36:38;121.10;;;49.80;;
21392;SDS011;10857;52.228;21.026;2024-01-10T13:39:06;124.20;;;43.93;;
21392;SDS011;10857;52.228;21.026;2024-01-10T13:41:33;136.10;;;47.20;;
21392;SDS011;10857;52.228;21.026;2024-01-10T13:44:01;122.10;;;46.40;;
21392;SDS011;10857;52.228;21.026;2024-01-10T13:46:28;121.57;;;47.07;;
21392;SDS011;10857;52.228;21.026;2024-01-10T13:48:55;126.90;;;46.90;;
21392;SDS011;10857;52.228;21.026;2024-01-10T13:51:22;133.93;;;47.57;;
21392;SDS011;10857;52.228;21.026;2024-01-10T13:53:49;129.63;;;49.77;;
21392;SDS011;10857;52.228;21.026;2024-01-10T13:56:16;123.37;;;48.30;;
21392;SDS011;10857;52.228;21.026;2024-01-10T13:58:43;137.37;;;52.17;;
21392;SDS011;10857;52.228;21.026;2024-01-10T14:01:10;134.43;;;50.67;;
21392;SDS011;10857;52.228;21.026;2024-01-10T14:03:37;143.70;;;51.40;;
21392;SDS011;10857;52.228;21.026;2024-01-10T14:06:05;144.60;;;58.17;;
21392;SDS011;10857;52.228;21.026;2024-01-10T14:08:32;140.43;;;54.10;;
21392;SDS011;10857;52.228;21.026;2024-01-10T14:11:00;125.27;;;52.57;;
21392;SDS011;10857;52.228;21.026;2024-01-10T14:13:27;139.83;;;53.77;;
21392;SDS011;10857;52.228;21.026;2024-01-10T14:15:54;144.90;;;52.87;;
21392;SDS011;10857;52.228;21.026;2024-01-10T14:18:22;139.60;;;51.53;;
21392;SDS011;10857;52.228;21.026;2024-01-10T14:20:49;134.23;;;53.40;;
21392;SDS011;10857;52.228;21.026;2024-01-10T14:23:16;142.97;;;52.30;;
21392;SDS011;10857;52.228;21.026;2024-01-10T14:25:45;147.10;;;54.23;;
21392;SDS011;10857;52.228;21.026;2024-01-10T14:28:12;106.37;;;38.30;;